sensor_id;sensor_type;location;lat;lon;timestamp;temperature;humidity
47857;DHT22;33618;49.972;8.242;2022-11-20T00:01:22;2.90;99.90
47857;DHT22;33618;49.972;8.242;2022-11-20T00:03:51;2.80;99.90
47857;DHT22;33618;49.972;8.242;2022-11-20T00:06:19;2.70;99.90
47857;DHT22;33618;49.972;8.242;2022-11-20T00:08:47;2.60;99.90
47857;DHT22;33618;49.972;8.242;2022-11-20T00:11:20;2.60;99.90
47857;DHT22;33618;49.972;8.242;2022-11-20T00:13:51;2.60;99.90
47857;DHT22;33618;49.972;8.242;2022-11-20T00:16:21;2.60;99.90
47857;DHT22;33618;49.972;8.242;2022-11-20T00:18:48;2.60;99.90
47857;DHT22;33618;49.972;8.242;2022-11-20T00:21:21;2.60;99.90
47857;DHT22;33618;49.972;8.242;2022-11-20T00:23:50;2.60;99.90
47857;DHT22;33618;49.972;8.242;2022-11-20T00:26:26;2.70;99.90
47857;DHT22;33618;49.972;8.242;2022-11-20T00:28:58;2.70;99.90
47857;DHT22;33618;49.972;8.242;2022-11-20T00:31:30;2.60;99.90
47857;DHT22;33618;49.972;8.242;2022-11-20T00:34:00;2.60;99.90
47857;DHT22;33618;49.972;8.242;2022-11-20T00:36:31;2.50;99.90
47857;DHT22;33618;49.972;8.242;2022-11-20T00:39:00;2.50;99.90
47857;DHT22;33618;49.972;8.242;2022-11-20T00:41:28;2.50;99.90
47857;DHT22;33618;49.972;8.242;2022-11-20T00:43:57;2.50;99.90
47857;DHT22;33618;49.972;8.242;2022-11-20T00:46:27;2.60;99.90
47857;DHT22;33618;49.972;8.242;2022-11-20T00:48:54;2.60;99.90
47857;DHT22;33618;49.972;8.242;2022-11-20T00:51:23;2.70;99.90
47857;DHT22;33618;49.972;8.242;2022-11-20T00:53:51;2.70;99.90
47857;DHT22;33618;49.972;8.242;2022-11-20T00:56:19;2.70;99.90
47857;DHT22;33618;49.972;8.242;2022-11-20T00:58:48;2.80;99.90
47857;DHT22;33618;49.972;8.242;2022-11-20T01:01:24;2.70;99.90
47857;DHT22;33618;49.972;8.242;2022-11-20T01:03:56;2.80;99.90
47857;DHT22;33618;49.972;8.242;2022-11-20T01:06:28;2.70;99.90
47857;DHT22;33618;49.972;8.242;2022-11-20T01:08:58;2.80;99.90
47857;DHT22;33618;49.972;8.242;2022-11-20T01:11:31;2.80;99.90
47857;DHT22;33618;49.972;8.242;2022-11-20T01:14:00;2.80;99.90
47857;DHT22;33618;49.972;8.242;2022-11-20T01:16:36;2.80;99.90
47857;DHT22;33618;49.972;8.242;2022-11-20T01:19:06;2.80;99.90
47857;DHT22;33618;49.972;8.242;2022-11-20T01:21:35;2.80;99.90
47857;DHT22;33618;49.972;8.242;2022-11-20T01:24:07;2.80;99.90
47857;DHT22;33618;49.972;8.242;2022-11-20T01:26:37;2.80;99.90
47857;DHT22;33618;49.972;8.242;2022-11-20T01:29:05;2.90;99.90
47857;DHT22;33618;49.972;8.242;2022-11-20T01:31:34;2.90;99.90
47857;DHT22;33618;49.972;8.242;2022-11-20T01:34:09;2.90;99.90
47857;DHT22;33618;49.972;8.242;2022-11-20T01:36:37;2.90;99.90
47857;DHT22;33618;49.972;8.242;2022-11-20T01:39:07;2.90;99.90
47857;DHT22;33618;49.972;8.242;2022-11-20T01:41:35;2.90;99.90
47857;DHT22;33618;49.972;8.242;2022-11-20T01:44:39;2.90;99.90
47857;DHT22;33618;49.972;8.242;2022-11-20T01:47:12;2.90;99.90
47857;DHT22;33618;49.972;8.242;2022-11-20T01:49:56;2.90;99.90
47857;DHT22;33618;49.972;8.242;2022-11-20T01:52:34;2.90;99.90
47857;DHT22;33618;49.972;8.242;2022-11-20T01:55:09;2.90;99.90
47857;DHT22;33618;49.972;8.242;2022-11-20T01:57:38;2.90;99.90
47857;DHT22;33618;49.972;8.242;2022-11-20T02:00:10;2.90;99.90
47857;DHT22;33618;49.972;8.242;2022-11-20T02:02:39;2.90;99.90
47857;DHT22;33618;49.972;8.242;2022-11-20T02:05:16;2.90;99.90
47857;DHT22;33618;49.972;8.242;2022-11-20T02:07:45;2.90;99.90
47857;DHT22;33618;49.972;8.242;2022-11-20T02:10:12;2.90;99.90
47857;DHT22;33618;49.972;8.242;2022-11-20T02:12:39;2.90;99.90
47857;DHT22;33618;49.972;8.242;2022-11-20T02:15:25;2.90;99.90
47857;DHT22;33618;49.972;8.242;2022-11-20T02:17:56;2.90;99.90
47857;DHT22;33618;49.972;8.242;2022-11-20T02:20:23;2.90;99.90
47857;DHT22;33618;49.972;8.242;2022-11-20T02:22:55;3.00;99.90
47857;DHT22;33618;49.972;8.242;2022-11-20T02:25:24;3.00;99.90
47857;DHT22;33618;49.972;8.242;2022-11-20T02:27:53;3.00;99.90
47857;DHT22;33618;49.972;8.242;2022-11-20T02:30:20;3.00;99.90
47857;DHT22;33618;49.972;8.242;2022-11-20T02:32:47;2.90;99.90
47857;DHT22;33618;49.972;8.242;2022-11-20T02:37:50;2.90;99.90
47857;DHT22;33618;49.972;8.242;2022-11-20T02:40:18;2.90;99.90
47857;DHT22;33618;49.972;8.242;2022-11-20T02:42:45;2.80;99.90
47857;DHT22;33618;49.972;8.242;2022-11-20T02:45:12;2.80;99.90
47857;DHT22;33618;49.972;8.242;2022-11-20T02:47:39;2.90;99.90
47857;DHT22;33618;49.972;8.242;2022-11-20T02:50:06;2.90;99.90
47857;DHT22;33618;49.972;8.242;2022-11-20T02:52:33;2.80;99.90
47857;DHT22;33618;49.972;8.242;2022-11-20T02:55:01;2.70;99.90
47857;DHT22;33618;49.972;8.242;2022-11-20T02:57:28;2.80;99.90
47857;DHT22;33618;49.972;8.242;2022-11-20T02:59:55;2.80;99.90
47857;DHT22;33618;49.972;8.242;2022-11-20T03:02:22;2.80;99.90
47857;DHT22;33618;49.972;8.242;2022-11-20T03:04:49;2.80;99.90
47857;DHT22;33618;49.972;8.242;2022-11-20T03:07:16;2.80;99.90
47857;DHT22;33618;49.972;8.242;2022-11-20T03:09:43;2.80;99.90
47857;DHT22;33618;49.972;8.242;2022-11-20T03:12:10;2.80;99.90
47857;DHT22;33618;49.972;8.242;2022-11-20T03:14:38;2.80;99.90
47857;DHT22;33618;49.972;8.242;2022-11-20T03:17:04;2.80;99.90
47857;DHT22;33618;49.972;8.242;2022-11-20T03:19:31;2.80;99.90
47857;DHT22;33618;49.972;8.242;2022-11-20T03:21:58;2.70;99.90
47857;DHT22;33618;49.972;8.242;2022-11-20T03:24:27;2.80;99.90
47857;DHT22;33618;49.972;8.242;2022-11-20T03:26:53;2.80;99.90
47857;DHT22;33618;49.972;8.242;2022-11-20T03:29:20;2.80;99.90
47857;DHT22;33618;49.972;8.242;2022-11-20T03:31:48;2.80;99.90
47857;DHT22;33618;49.972;8.242;2022-11-20T03:34:14;2.80;99.90
47857;DHT22;33618;49.972;8.242;2022-11-20T03:36:42;2.90;99.90
47857;DHT22;33618;49.972;8.242;2022-11-20T03:39:09;2.90;99.90
47857;DHT22;33618;49.972;8.242;2022-11-20T03:41:38;2.90;99.90
47857;DHT22;33618;49.972;8.242;2022-11-20T03:44:08;3.00;99.90
47857;DHT22;33618;49.972;8.242;2022-11-20T03:46:36;3.00;99.90
47857;DHT22;33618;49.972;8.242;2022-11-20T03:49:04;2.90;99.90
47857;DHT22;33618;49.972;8.242;2022-11-20T03:51:33;3.00;99.90
47857;DHT22;33618;49.972;8.242;2022-11-20T03:54:03;3.00;99.90
47857;DHT22;33618;49.972;8.242;2022-11-20T03:56:33;2.90;99.90
47857;DHT22;33618;49.972;8.242;2022-11-20T03:59:00;2.90;99.90
47857;DHT22;33618;49.972;8.242;2022-11-20T04:01:30;3.00;99.90
47857;DHT22;33618;49.972;8.242;2022-11-20T04:03:57;2.90;99.90
47857;DHT22;33618;49.972;8.242;2022-11-20T04:06:27;2.90;99.90
47857;DHT22;33618;49.972;8.242;2022-11-20T04:08:55;2.90;99.90
47857;DHT22;33618;49.972;8.242;2022-11-20T04:11:26;2.90;99.90
47857;DHT22;33618;49.972;8.242;2022-11-20T04:13:59;2.90;99.90
47857;DHT22;33618;49.972;8.242;2022-11-20T04:16:30;2.90;99.90
47857;DHT22;33618;49.972;8.242;2022-11-20T04:18:59;3.00;99.90
47857;DHT22;33618;49.972;8.242;2022-11-20T04:21:26;3.00;99.90
47857;DHT22;33618;49.972;8.242;2022-11-20T04:23:54;3.00;99.90
47857;DHT22;33618;49.972;8.242;2022-11-20T04:26:23;3.00;99.90
47857;DHT22;33618;49.972;8.242;2022-11-20T04:28:51;3.00;99.90
47857;DHT22;33618;49.972;8.242;2022-11-20T04:31:21;3.00;99.90
47857;DHT22;33618;49.972;8.242;2022-11-20T04:33:49;3.00;99.90
47857;DHT22;33618;49.972;8.242;2022-11-20T04:36:21;2.90;99.90
47857;DHT22;33618;49.972;8.242;2022-11-20T04:38:52;3.00;99.90
47857;DHT22;33618;49.972;8.242;2022-11-20T04:41:28;2.90;99.90
47857;DHT22;33618;49.972;8.242;2022-11-20T04:43:57;3.00;99.90
47857;DHT22;33618;49.972;8.242;2022-11-20T04:46:35;3.00;99.90
47857;DHT22;33618;49.972;8.242;2022-11-20T04:49:03;3.00;99.90
47857;DHT22;33618;49.972;8.242;2022-11-20T04:51:30;3.00;99.90
47857;DHT22;33618;49.972;8.242;2022-11-20T04:53:57;3.00;99.90
47857;DHT22;33618;49.972;8.242;2022-11-20T04:56:25;3.00;99.90
47857;DHT22;33618;49.972;8.242;2022-11-20T04:58:52;3.00;99.90
47857;DHT22;33618;49.972;8.242;2022-11-20T05:01:21;3.00;99.90
47857;DHT22;33618;49.972;8.242;2022-11-20T05:03:49;2.90;99.90
47857;DHT22;33618;49.972;8.242;2022-11-20T05:06:19;3.00;99.90
47857;DHT22;33618;49.972;8.242;2022-11-20T05:08:46;3.00;99.90
47857;DHT22;33618;49.972;8.242;2022-11-20T05:11:15;3.00;99.90
47857;DHT22;33618;49.972;8.242;2022-11-20T05:13:42;3.00;99.90
47857;DHT22;33618;49.972;8.242;2022-11-20T05:16:18;3.00;99.90
47857;DHT22;33618;49.972;8.242;2022-11-20T05:18:46;3.00;99.90
47857;DHT22;33618;49.972;8.242;2022-11-20T05:21:13;3.00;99.90
47857;DHT22;33618;49.972;8.242;2022-11-20T05:23:41;3.00;99.90
47857;DHT22;33618;49.972;8.242;2022-11-20T05:26:13;3.00;99.90
47857;DHT22;33618;49.972;8.242;2022-11-20T05:28:40;3.00;99.90
47857;DHT22;33618;49.972;8.242;2022-11-20T05:31:27;3.00;99.90
47857;DHT22;33618;49.972;8.242;2022-11-20T05:33:56;3.10;99.90
47857;DHT22;33618;49.972;8.242;2022-11-20T05:36:24;3.10;99.90
47857;DHT22;33618;49.972;8.242;2022-11-20T05:38:51;3.10;99.90
47857;DHT22;33618;49.972;8.242;2022-11-20T05:41:25;3.00;99.90
47857;DHT22;33618;49.972;8.242;2022-11-20T05:43:52;3.00;99.90
47857;DHT22;33618;49.972;8.242;2022-11-20T05:46:21;3.00;99.90
47857;DHT22;33618;49.972;8.242;2022-11-20T05:48:55;3.10;99.90
47857;DHT22;33618;49.972;8.242;2022-11-20T05:51:22;3.10;99.90
47857;DHT22;33618;49.972;8.242;2022-11-20T05:53:49;3.10;99.90
47857;DHT22;33618;49.972;8.242;2022-11-20T05:56:18;3.10;99.90
47857;DHT22;33618;49.972;8.242;2022-11-20T05:58:46;3.10;99.90
47857;DHT22;33618;49.972;8.242;2022-11-20T06:01:14;3.10;99.90
47857;DHT22;33618;49.972;8.242;2022-11-20T06:03:42;3.20;99.90
47857;DHT22;33618;49.972;8.242;2022-11-20T06:06:13;3.20;99.90
47857;DHT22;33618;49.972;8.242;2022-11-20T06:08:41;3.10;99.90
47857;DHT22;33618;49.972;8.242;2022-11-20T06:11:09;3.10;99.90
47857;DHT22;33618;49.972;8.242;2022-11-20T06:13:37;3.20;99.90
47857;DHT22;33618;49.972;8.242;2022-11-20T06:16:09;3.20;99.90
47857;DHT22;33618;49.972;8.242;2022-11-20T06:18:37;3.20;99.90
47857;DHT22;33618;49.972;8.242;2022-11-20T06:21:12;3.20;99.90
47857;DHT22;33618;49.972;8.242;2022-11-20T06:23:40;3.30;99.90
47857;DHT22;33618;49.972;8.242;2022-11-20T06:26:15;3.30;99.90
47857;DHT22;33618;49.972;8.242;2022-11-20T06:28:42;3.20;99.90
47857;DHT22;33618;49.972;8.242;2022-11-20T06:31:14;3.20;99.90
47857;DHT22;33618;49.972;8.242;2022-11-20T06:33:42;3.20;99.90
47857;DHT22;33618;49.972;8.242;2022-11-20T06:36:10;3.20;99.90
47857;DHT22;33618;49.972;8.242;2022-11-20T06:38:39;3.10;99.90
47857;DHT22;33618;49.972;8.242;2022-11-20T06:41:08;3.10;99.90
47857;DHT22;33618;49.972;8.242;2022-11-20T06:43:36;3.20;99.90
47857;DHT22;33618;49.972;8.242;2022-11-20T06:46:03;3.10;99.90
47857;DHT22;33618;49.972;8.242;2022-11-20T06:48:30;3.20;99.90
47857;DHT22;33618;49.972;8.242;2022-11-20T06:50:58;3.30;99.90
47857;DHT22;33618;49.972;8.242;2022-11-20T06:53:25;3.30;99.90
47857;DHT22;33618;49.972;8.242;2022-11-20T06:55:52;3.30;99.90
47857;DHT22;33618;49.972;8.242;2022-11-20T06:58:22;3.40;99.90
47857;DHT22;33618;49.972;8.242;2022-11-20T07:00:49;3.30;99.90
47857;DHT22;33618;49.972;8.242;2022-11-20T07:03:16;3.30;99.90
47857;DHT22;33618;49.972;8.242;2022-11-20T07:05:42;3.30;99.90
47857;DHT22;33618;49.972;8.242;2022-11-20T07:08:10;3.30;99.90
47857;DHT22;33618;49.972;8.242;2022-11-20T07:10:38;3.30;99.90
47857;DHT22;33618;49.972;8.242;2022-11-20T07:13:05;3.40;99.90
47857;DHT22;33618;49.972;8.242;2022-11-20T07:15:33;3.30;99.90
47857;DHT22;33618;49.972;8.242;2022-11-20T07:18:02;3.30;99.90
47857;DHT22;33618;49.972;8.242;2022-11-20T07:20:30;3.30;99.90
47857;DHT22;33618;49.972;8.242;2022-11-20T07:22:57;3.30;99.90
47857;DHT22;33618;49.972;8.242;2022-11-20T07:25:26;3.20;99.90
47857;DHT22;33618;49.972;8.242;2022-11-20T07:28:00;3.30;99.90
47857;DHT22;33618;49.972;8.242;2022-11-20T07:30:28;3.30;99.90
47857;DHT22;33618;49.972;8.242;2022-11-20T07:32:55;3.40;99.90
47857;DHT22;33618;49.972;8.242;2022-11-20T07:35:24;3.40;99.90
47857;DHT22;33618;49.972;8.242;2022-11-20T07:37:51;3.40;99.90
47857;DHT22;33618;49.972;8.242;2022-11-20T07:40:18;3.40;99.90
47857;DHT22;33618;49.972;8.242;2022-11-20T07:42:51;3.50;99.90
47857;DHT22;33618;49.972;8.242;2022-11-20T07:45:19;3.60;99.90
47857;DHT22;33618;49.972;8.242;2022-11-20T07:47:47;3.60;99.90
47857;DHT22;33618;49.972;8.242;2022-11-20T07:50:14;3.60;99.90
47857;DHT22;33618;49.972;8.242;2022-11-20T07:52:49;3.60;99.90
47857;DHT22;33618;49.972;8.242;2022-11-20T07:55:16;3.50;99.90
47857;DHT22;33618;49.972;8.242;2022-11-20T07:57:43;3.50;99.90
47857;DHT22;33618;49.972;8.242;2022-11-20T08:00:11;3.60;99.90
47857;DHT22;33618;49.972;8.242;2022-11-20T08:02:39;3.70;99.90
47857;DHT22;33618;49.972;8.242;2022-11-20T08:05:09;3.70;99.90
47857;DHT22;33618;49.972;8.242;2022-11-20T08:07:38;3.80;99.90
47857;DHT22;33618;49.972;8.242;2022-11-20T08:10:07;3.80;99.90
47857;DHT22;33618;49.972;8.242;2022-11-20T08:12:34;3.80;99.90
47857;DHT22;33618;49.972;8.242;2022-11-20T08:15:20;3.80;99.90
47857;DHT22;33618;49.972;8.242;2022-11-20T08:17:47;3.80;99.90
47857;DHT22;33618;49.972;8.242;2022-11-20T08:20:34;3.90;99.90
47857;DHT22;33618;49.972;8.242;2022-11-20T08:23:04;3.90;99.90
47857;DHT22;33618;49.972;8.242;2022-11-20T08:25:34;3.90;99.90
47857;DHT22;33618;49.972;8.242;2022-11-20T08:28:03;3.80;99.90
47857;DHT22;33618;49.972;8.242;2022-11-20T08:30:45;3.80;99.90
47857;DHT22;33618;49.972;8.242;2022-11-20T08:33:12;3.90;99.90
47857;DHT22;33618;49.972;8.242;2022-11-20T08:35:39;3.90;99.90
47857;DHT22;33618;49.972;8.242;2022-11-20T08:38:08;3.90;99.90
47857;DHT22;33618;49.972;8.242;2022-11-20T08:40:35;3.90;99.90
47857;DHT22;33618;49.972;8.242;2022-11-20T08:43:02;3.90;99.90
47857;DHT22;33618;49.972;8.242;2022-11-20T08:45:29;4.00;99.90
47857;DHT22;33618;49.972;8.242;2022-11-20T08:48:02;4.00;99.90
47857;DHT22;33618;49.972;8.242;2022-11-20T08:50:30;4.10;99.90
47857;DHT22;33618;49.972;8.242;2022-11-20T08:53:05;4.20;99.90
47857;DHT22;33618;49.972;8.242;2022-11-20T08:55:32;4.30;99.90
47857;DHT22;33618;49.972;8.242;2022-11-20T08:58:05;4.30;99.90
47857;DHT22;33618;49.972;8.242;2022-11-20T09:00:33;4.40;99.90
47857;DHT22;33618;49.972;8.242;2022-11-20T09:03:01;4.40;99.90
47857;DHT22;33618;49.972;8.242;2022-11-20T09:05:28;4.40;99.90
47857;DHT22;33618;49.972;8.242;2022-11-20T09:07:58;4.40;99.90
47857;DHT22;33618;49.972;8.242;2022-11-20T09:10:27;4.50;99.90
47857;DHT22;33618;49.972;8.242;2022-11-20T09:12:55;4.50;99.90
47857;DHT22;33618;49.972;8.242;2022-11-20T09:15:23;4.40;99.90
47857;DHT22;33618;49.972;8.242;2022-11-20T09:17:58;4.40;99.90
47857;DHT22;33618;49.972;8.242;2022-11-20T09:20:27;4.40;99.90
47857;DHT22;33618;49.972;8.242;2022-11-20T09:22:56;4.50;99.90
47857;DHT22;33618;49.972;8.242;2022-11-20T09:25:24;4.60;99.90
47857;DHT22;33618;49.972;8.242;2022-11-20T09:27:58;4.60;99.90
47857;DHT22;33618;49.972;8.242;2022-11-20T09:30:25;4.60;99.90
47857;DHT22;33618;49.972;8.242;2022-11-20T09:32:53;4.50;99.90
47857;DHT22;33618;49.972;8.242;2022-11-20T09:35:20;4.50;99.90
47857;DHT22;33618;49.972;8.242;2022-11-20T09:37:47;4.50;99.90
47857;DHT22;33618;49.972;8.242;2022-11-20T09:40:26;4.50;99.90
47857;DHT22;33618;49.972;8.242;2022-11-20T09:43:15;4.50;99.90
47857;DHT22;33618;49.972;8.242;2022-11-20T09:56:53;4.80;99.90
47857;DHT22;33618;49.972;8.242;2022-11-20T10:02:16;5.00;99.90
47857;DHT22;33618;49.972;8.242;2022-11-20T10:04:55;5.00;99.90
47857;DHT22;33618;49.972;8.242;2022-11-20T10:07:30;5.00;99.90
47857;DHT22;33618;49.972;8.242;2022-11-20T10:09:59;4.90;99.90
47857;DHT22;33618;49.972;8.242;2022-11-20T10:34:07;5.00;99.90
47857;DHT22;33618;49.972;8.242;2022-11-20T10:36:55;5.00;99.90
47857;DHT22;33618;49.972;8.242;2022-11-20T10:48:44;5.00;99.90
47857;DHT22;33618;49.972;8.242;2022-11-20T10:54:18;5.00;99.90
47857;DHT22;33618;49.972;8.242;2022-11-20T10:57:00;5.10;99.90
47857;DHT22;33618;49.972;8.242;2022-11-20T11:02:21;5.10;99.90
47857;DHT22;33618;49.972;8.242;2022-11-20T11:04:52;5.20;99.90
47857;DHT22;33618;49.972;8.242;2022-11-20T11:07:27;5.20;99.90
47857;DHT22;33618;49.972;8.242;2022-11-20T11:09:56;5.20;99.90
47857;DHT22;33618;49.972;8.242;2022-11-20T11:12:25;5.20;99.90
47857;DHT22;33618;49.972;8.242;2022-11-20T11:14:57;5.10;99.90
47857;DHT22;33618;49.972;8.242;2022-11-20T11:17:30;5.10;99.90
47857;DHT22;33618;49.972;8.242;2022-11-20T11:20:14;5.10;99.90
47857;DHT22;33618;49.972;8.242;2022-11-20T11:22:54;5.20;99.90
47857;DHT22;33618;49.972;8.242;2022-11-20T11:25:35;5.10;99.90
47857;DHT22;33618;49.972;8.242;2022-11-20T11:28:03;5.10;99.90
47857;DHT22;33618;49.972;8.242;2022-11-20T11:30:41;5.20;99.90
47857;DHT22;33618;49.972;8.242;2022-11-20T11:35:52;5.40;99.90
47857;DHT22;33618;49.972;8.242;2022-11-20T11:38:27;5.50;99.90
47857;DHT22;33618;49.972;8.242;2022-11-20T11:40:55;5.60;99.90
47857;DHT22;33618;49.972;8.242;2022-11-20T11:43:26;5.80;99.90
47857;DHT22;33618;49.972;8.242;2022-11-20T11:46:30;5.90;99.90
47857;DHT22;33618;49.972;8.242;2022-11-20T11:54:41;5.90;99.90
47857;DHT22;33618;49.972;8.242;2022-11-20T11:57:57;6.00;99.90
47857;DHT22;33618;49.972;8.242;2022-11-20T12:00:19;6.00;99.90
47857;DHT22;33618;49.972;8.242;2022-11-20T12:02:56;6.00;99.90
47857;DHT22;33618;49.972;8.242;2022-11-20T12:13:53;6.60;99.90
47857;DHT22;33618;49.972;8.242;2022-11-20T12:16:20;6.60;99.90
47857;DHT22;33618;49.972;8.242;2022-11-20T12:18:50;6.50;99.90
47857;DHT22;33618;49.972;8.242;2022-11-20T12:27:03;6.20;99.90
47857;DHT22;33618;49.972;8.242;2022-11-20T12:34:47;6.20;99.90
47857;DHT22;33618;49.972;8.242;2022-11-20T12:37:48;6.20;99.90
47857;DHT22;33618;49.972;8.242;2022-11-20T12:40:38;6.30;99.90
47857;DHT22;33618;49.972;8.242;2022-11-20T12:46:34;6.60;99.90
47857;DHT22;33618;49.972;8.242;2022-11-20T12:49:03;6.60;99.90
47857;DHT22;33618;49.972;8.242;2022-11-20T12:52:19;6.70;99.90
47857;DHT22;33618;49.972;8.242;2022-11-20T13:00:24;6.90;99.90
47857;DHT22;33618;49.972;8.242;2022-11-20T13:08:39;7.00;99.90
47857;DHT22;33618;49.972;8.242;2022-11-20T13:11:12;6.80;99.90
47857;DHT22;33618;49.972;8.242;2022-11-20T13:19:20;6.40;99.90
47857;DHT22;33618;49.972;8.242;2022-11-20T13:21:49;6.30;99.90
47857;DHT22;33618;49.972;8.242;2022-11-20T13:29:44;6.00;99.90
47857;DHT22;33618;49.972;8.242;2022-11-20T13:32:20;6.00;99.90
47857;DHT22;33618;49.972;8.242;2022-11-20T13:35:01;5.90;99.90
47857;DHT22;33618;49.972;8.242;2022-11-20T13:37:36;6.10;99.90
47857;DHT22;33618;49.972;8.242;2022-11-20T13:45:24;6.20;99.90
47857;DHT22;33618;49.972;8.242;2022-11-20T13:47:53;6.30;99.90
47857;DHT22;33618;49.972;8.242;2022-11-20T13:55:54;6.50;99.90
47857;DHT22;33618;49.972;8.242;2022-11-20T14:01:32;6.70;99.90
47857;DHT22;33618;49.972;8.242;2022-11-20T14:04:09;6.90;99.90
47857;DHT22;33618;49.972;8.242;2022-11-20T14:06:47;6.90;99.90
47857;DHT22;33618;49.972;8.242;2022-11-20T14:09:51;7.00;99.90
47857;DHT22;33618;49.972;8.242;2022-11-20T14:12:21;7.00;99.90
47857;DHT22;33618;49.972;8.242;2022-11-20T14:14:50;7.10;99.90
47857;DHT22;33618;49.972;8.242;2022-11-20T14:19:46;7.00;99.90
47857;DHT22;33618;49.972;8.242;2022-11-20T14:22:25;7.00;99.90
47857;DHT22;33618;49.972;8.242;2022-11-20T14:28:39;7.00;99.90
47857;DHT22;33618;49.972;8.242;2022-11-20T14:31:23;6.90;99.90
47857;DHT22;33618;49.972;8.242;2022-11-20T14:33:51;6.90;99.90
47857;DHT22;33618;49.972;8.242;2022-11-20T14:36:22;7.00;99.90
47857;DHT22;33618;49.972;8.242;2022-11-20T14:38:51;6.90;99.90
47857;DHT22;33618;49.972;8.242;2022-11-20T14:41:21;6.90;99.90
47857;DHT22;33618;49.972;8.242;2022-11-20T14:43:58;6.90;99.90
47857;DHT22;33618;49.972;8.242;2022-11-20T14:46:26;6.80;99.90
47857;DHT22;33618;49.972;8.242;2022-11-20T14:48:57;6.80;99.90
47857;DHT22;33618;49.972;8.242;2022-11-20T14:51:33;6.80;99.90
47857;DHT22;33618;49.972;8.242;2022-11-20T14:54:15;6.80;99.90
47857;DHT22;33618;49.972;8.242;2022-11-20T14:57:00;6.70;99.90
47857;DHT22;33618;49.972;8.242;2022-11-20T14:59:30;6.70;99.90
47857;DHT22;33618;49.972;8.242;2022-11-20T15:02:07;6.70;99.90
47857;DHT22;33618;49.972;8.242;2022-11-20T15:07:24;6.60;99.90
47857;DHT22;33618;49.972;8.242;2022-11-20T15:12:29;6.50;99.90
47857;DHT22;33618;49.972;8.242;2022-11-20T15:14:56;6.60;99.90
47857;DHT22;33618;49.972;8.242;2022-11-20T15:17:23;6.60;99.90
47857;DHT22;33618;49.972;8.242;2022-11-20T15:19:51;6.50;99.90
47857;DHT22;33618;49.972;8.242;2022-11-20T15:22:18;6.50;99.90
47857;DHT22;33618;49.972;8.242;2022-11-20T15:24:46;6.50;99.90
47857;DHT22;33618;49.972;8.242;2022-11-20T15:27:13;6.50;99.90
47857;DHT22;33618;49.972;8.242;2022-11-20T15:29:41;6.50;99.90
47857;DHT22;33618;49.972;8.242;2022-11-20T15:32:08;6.50;99.90
47857;DHT22;33618;49.972;8.242;2022-11-20T15:34:39;6.40;99.90
47857;DHT22;33618;49.972;8.242;2022-11-20T15:37:06;6.50;99.90
47857;DHT22;33618;49.972;8.242;2022-11-20T15:39:33;6.50;99.90
47857;DHT22;33618;49.972;8.242;2022-11-20T15:42:00;6.40;99.90
47857;DHT22;33618;49.972;8.242;2022-11-20T15:44:27;6.40;99.90
47857;DHT22;33618;49.972;8.242;2022-11-20T15:46:54;6.40;99.90
47857;DHT22;33618;49.972;8.242;2022-11-20T15:49:21;6.30;99.90
47857;DHT22;33618;49.972;8.242;2022-11-20T15:51:50;6.20;99.90
47857;DHT22;33618;49.972;8.242;2022-11-20T15:54:21;6.10;99.90
47857;DHT22;33618;49.972;8.242;2022-11-20T15:56:50;6.10;99.90
47857;DHT22;33618;49.972;8.242;2022-11-20T15:59:19;6.00;99.90
47857;DHT22;33618;49.972;8.242;2022-11-20T16:01:46;6.00;99.90
47857;DHT22;33618;49.972;8.242;2022-11-20T16:04:15;6.10;99.90
47857;DHT22;33618;49.972;8.242;2022-11-20T16:06:42;6.00;99.90
47857;DHT22;33618;49.972;8.242;2022-11-20T16:09:09;6.00;99.90
47857;DHT22;33618;49.972;8.242;2022-11-20T16:11:36;6.00;99.90
47857;DHT22;33618;49.972;8.242;2022-11-20T16:14:05;5.90;99.90
47857;DHT22;33618;49.972;8.242;2022-11-20T16:16:51;5.90;99.90
47857;DHT22;33618;49.972;8.242;2022-11-20T16:19:18;5.90;99.90
47857;DHT22;33618;49.972;8.242;2022-11-20T16:21:45;5.90;99.90
47857;DHT22;33618;49.972;8.242;2022-11-20T16:24:13;5.90;99.90
47857;DHT22;33618;49.972;8.242;2022-11-20T16:26:41;5.80;99.90
47857;DHT22;33618;49.972;8.242;2022-11-20T16:29:08;5.80;99.90
47857;DHT22;33618;49.972;8.242;2022-11-20T16:31:37;5.80;99.90
47857;DHT22;33618;49.972;8.242;2022-11-20T16:34:06;5.80;99.90
47857;DHT22;33618;49.972;8.242;2022-11-20T16:36:41;5.70;99.90
47857;DHT22;33618;49.972;8.242;2022-11-20T16:39:09;5.80;99.90
47857;DHT22;33618;49.972;8.242;2022-11-20T16:41:36;5.70;99.90
47857;DHT22;33618;49.972;8.242;2022-11-20T16:44:08;5.70;99.90
47857;DHT22;33618;49.972;8.242;2022-11-20T16:46:36;5.70;99.90
47857;DHT22;33618;49.972;8.242;2022-11-20T16:49:05;5.70;99.90
47857;DHT22;33618;49.972;8.242;2022-11-20T16:51:35;5.70;99.90
47857;DHT22;33618;49.972;8.242;2022-11-20T16:54:07;5.80;99.90
47857;DHT22;33618;49.972;8.242;2022-11-20T16:56:34;5.80;99.90
47857;DHT22;33618;49.972;8.242;2022-11-20T16:59:01;5.70;99.90
47857;DHT22;33618;49.972;8.242;2022-11-20T17:01:29;5.70;99.90
47857;DHT22;33618;49.972;8.242;2022-11-20T17:04:01;5.70;99.90
47857;DHT22;33618;49.972;8.242;2022-11-20T17:06:38;5.70;99.90
47857;DHT22;33618;49.972;8.242;2022-11-20T17:09:06;5.80;99.90
47857;DHT22;33618;49.972;8.242;2022-11-20T17:11:36;5.80;99.90
47857;DHT22;33618;49.972;8.242;2022-11-20T17:14:04;5.80;99.90
47857;DHT22;33618;49.972;8.242;2022-11-20T17:16:34;5.80;99.90
47857;DHT22;33618;49.972;8.242;2022-11-20T17:19:02;5.80;99.90
47857;DHT22;33618;49.972;8.242;2022-11-20T17:21:32;5.80;99.90
47857;DHT22;33618;49.972;8.242;2022-11-20T17:24:06;5.90;99.90
47857;DHT22;33618;49.972;8.242;2022-11-20T17:26:34;5.80;99.90
47857;DHT22;33618;49.972;8.242;2022-11-20T17:29:04;5.90;99.90
47857;DHT22;33618;49.972;8.242;2022-11-20T17:31:33;5.90;99.90
47857;DHT22;33618;49.972;8.242;2022-11-20T17:34:00;5.90;99.90
47857;DHT22;33618;49.972;8.242;2022-11-20T17:36:29;5.90;99.90
47857;DHT22;33618;49.972;8.242;2022-11-20T17:38:57;6.00;99.90
47857;DHT22;33618;49.972;8.242;2022-11-20T17:41:26;6.00;99.90
47857;DHT22;33618;49.972;8.242;2022-11-20T17:43:55;6.00;99.90
47857;DHT22;33618;49.972;8.242;2022-11-20T17:46:25;6.00;99.90
47857;DHT22;33618;49.972;8.242;2022-11-20T17:48:52;5.90;99.90
47857;DHT22;33618;49.972;8.242;2022-11-20T17:51:26;6.00;99.90
47857;DHT22;33618;49.972;8.242;2022-11-20T17:53:56;6.00;99.90
47857;DHT22;33618;49.972;8.242;2022-11-20T17:56:24;6.00;99.90
47857;DHT22;33618;49.972;8.242;2022-11-20T17:59:11;6.10;99.90
47857;DHT22;33618;49.972;8.242;2022-11-20T18:01:39;6.10;99.90
47857;DHT22;33618;49.972;8.242;2022-11-20T18:04:09;6.10;99.90
47857;DHT22;33618;49.972;8.242;2022-11-20T18:06:37;6.10;99.90
47857;DHT22;33618;49.972;8.242;2022-11-20T18:09:05;6.20;99.90
47857;DHT22;33618;49.972;8.242;2022-11-20T18:11:35;6.30;99.90
47857;DHT22;33618;49.972;8.242;2022-11-20T18:14:05;6.30;99.90
47857;DHT22;33618;49.972;8.242;2022-11-20T18:16:57;6.40;99.90
47857;DHT22;33618;49.972;8.242;2022-11-20T18:19:27;6.40;99.90